General Aviation Weather

Text Reports

Enter one or more of the following location identifiers separated by a space:

Zip Code, Four-Character ICAO or Three-Character IATA airport codes.

METAR - Aviation Routine Weather Report
KAWM - West Memphis, Arkansas
Updated at 1:53 AM GMT on August 29, 2014 (8:53 PM CDT):
METAR KAWM 290153Z AUTO 00000KT 10SM FEW080 26/21 A2994 RMK AO2 SLP132 T02610211
TAF - Terminal Area Forecast
KAWM - West Memphis, Arkansas
Updated at 1:53 AM GMT on August 29, 2014 (8:53 PM CDT):
No TAF is currently available for this location.
Decoded:
No decoded TAF is available.
PIREP - Pilot Weather Report
KAWM - West Memphis, Arkansas
Updated at 1:53 AM GMT on August 29, 2014 (8:53 PM CDT):
No PIREP is currently available for this location.
AIRMET - Airmens Meteorological Information
KAWM - West Memphis, Arkansas
Updated at 1:53 AM GMT on August 29, 2014 (8:53 PM CDT):
No AIRMET is currently available for this location.
SIGMET - Significant Meteorological Information
KAWM - West Memphis, Arkansas
Updated at 1:53 AM GMT on August 29, 2014 (8:53 PM CDT):
No SIGMET is currently available for this location.
NOTAM - Notice to Airmen
KAWM - West Memphis, Arkansas
Updated at 1:53 AM GMT on August 29, 2014 (8:53 PM CDT):
No NOTAM is currently available for this location.
Forecast Area
KAWM - West Memphis, Arkansas
Updated at 1:53 AM GMT on August 29, 2014 (8:53 PM CDT):
No NOTAM is currently available for this location.
Aviation Weather Maps